FIMR METAR and TAF | Updated Today

FIMR METAR

Sir Charles Gaetan Duval Airport

Sir Charles Gaetan Duval Airport (FIMR) hasn't published a METAR.
We found the following current weather conditions for Plaine Corail from other sources.

Sir Charles Gaetan Duval Airport (FIMR) METAR

  • Weather conditions right now at FIMR:
  • Present conditions: Rain
  • Clouds: Light rain
  • Cloud cover: 15%
  • Wind: 104 at 17kts
  • Temperature: 26.6 celsius
  • Feels like: 26.6 celsius
  • Pressure: 1014mb
  • Humidity: 76%


Useful to know...

FIMR TAF

Sir Charles Gaetan Duval Airport

TAF FIMR 061135Z 0612/0706 11015G25KT 9999 SCT017 TEMPO 0615/0703 7000 -SHRA FEW010 BKN016
Observation time: 7:01 hr. ago
Need help? Read our tutorial on how to read TAFs or read the parsed version below.

Parsed version of TAF for Sir Charles Gaetan Duval Airport (FIMR)

  • From 06 February at 12:00 UTC, to day 07 of the month at 06:00 UTC
  • Clouds: Scattered at 518 meters
  • Visibility: Greater than 10 km
  • Wind: 110 degrees at 15
  • Expected to arise temporarily, from 06 February at 15:00 UTC, to day 07 of the month at 03:00 UTC
  • Clouds: A few at 305 meters; broken sky at 488 meters
  • Visibility: 7000 meters
  • Other: Light showers of rain

Airports near FIMR

No airports found within 100nm radius.